Chestnut Ridge, PA (15422)

10:27 PM EDT on August 28, 2016 (GMT -0400)
Dunbar | | Change Station
Active Advisory: Areal Flood Warning

Elev 1056 ft 40.00 °N, 79.69 °W | Updated 5 seconds ago

Heavy Thunderstorms and Rain
Heavy Thunderstorm Rain
68.0 °F
Feels Like 68.0 °F
N
2.9
Wind Variable Wind from East
Gusts 4.9 mph

Today
High -- | Low -- °F
--% Chance of Precip.
Yesterday
High -- | Low -- °F
Precip. -- in
Pressure 30.26 in
Visibility 2.5 miles
Clouds Few 1500 ft
Mostly Cloudy 2500 ft
Overcast 3300 ft
Dew Point 66 °F
Humidity 94%
Rainfall 1.69 in
Snow Depth Not available.
6:43 AM 7:56 PM
Waning Crescent, 11% visible
SPECI KMGW 290129Z 01017G23KT 2 1/2SM +TSRA FEW015 BKN025 OVC033 22/19 A3026 RMK AO2 LTG DSNT ALQDS RAB27 TSB10 TS ALQDS OCNL LGTICCCCG P0014 T02220189
Pressure 30.26 in
Visibility 2.5 miles
Clouds Few 1500 ft
Mostly Cloudy 2500 ft
Overcast 3300 ft
Dew Point 66 °F
Humidity 94%
Rainfall 1.69 in
Snow Depth Not available.
6:43 AM 7:56 PM
Waning Crescent, 11% visible
SPECI KMGW 290129Z 01017G23KT 2 1/2SM +TSRA FEW015 BKN025 OVC033 22/19 A3026 RMK AO2 LTG DSNT ALQDS RAB27 TSB10 TS ALQDS OCNL LGTICCCCG P0014 T02220189

10-Day Weather Forecast

Almanac

Astronomy

Aug. 28, 2016 Rise Set
Actual Time
Civil Twilight
Nautical Twilight
Astronomical Twilight
Moon
Length of Visible Light
Length of Day
Tomorrow will be .
, % of the Moon is Illuminated

Today's Extremes

State Highs State Lows

Community

WunderPhotos

Upload Photos

1,935,773 photos uploaded!

WunderBlog® & News

Nearby

Air Quality

  Air Quality AQ Index Pollutant
Not available.

Snow Depth

Station Depth Elevation

Earthquake Activity

City Distance Mag. Time & Date
Minimum magnitude displayed is 2.5.

Coastal Water Temperatures

Place Temperature

Stations

Nearby Weather Stations

Station Location Temp. Windchill Dew Point Humidity Wind Precip. Elev Updated Type
                   

Watches & Warnings

Areal Flood Warning
Issued: 9:13 PM EDT Aug. 28, 2016 – National Weather Service

... A Flood Warning remains in effect until 1045 PM EDT for
northeastern Fayette and southeastern Westmoreland counties...

At 912 PM EDT... emergency management officials reported widespread
flooding across the warned area. 3 to 4 inches of rain has already
fallen.

Precautionary/preparedness actions...

Be especially cautious at night when it is harder to recognize the
dangers of flooding.


Lat... Lon 4020 7913 4018 7913 4018 7914 4016 7914
      4016 7916 4012 7917 4011 7919 4012 7920
      4012 7921 4010 7923 4009 7926 3997 7935
      3994 7938 3994 7970 4023 7944 4029 7926
      4029 7905